sensor_id;sensor_type;location;lat;lon;timestamp;P1;durP1;ratioP1;P2;durP2;ratioP2
70908;SDS011;58554;52.006;5.926;2022-11-14T00:00:54;29.77;;;16.77;;
70908;SDS011;58554;52.006;5.926;2022-11-14T00:03:21;29.30;;;16.40;;
70908;SDS011;58554;52.006;5.926;2022-11-14T00:05:47;28.60;;;17.00;;
70908;SDS011;58554;52.006;5.926;2022-11-14T00:08:14;29.20;;;17.23;;
70908;SDS011;58554;52.006;5.926;2022-11-14T00:10:46;30.53;;;17.77;;
70908;SDS011;58554;52.006;5.926;2022-11-14T00:13:18;29.02;;;16.67;;
70908;SDS011;58554;52.006;5.926;2022-11-14T00:15:47;27.83;;;16.87;;
70908;SDS011;58554;52.006;5.926;2022-11-14T00:18:15;28.37;;;17.03;;
70908;SDS011;58554;52.006;5.926;2022-11-14T00:20:42;30.98;;;17.92;;
70908;SDS011;58554;52.006;5.926;2022-11-14T00:23:13;31.52;;;17.90;;
70908;SDS011;58554;52.006;5.926;2022-11-14T00:25:39;32.00;;;17.50;;
70908;SDS011;58554;52.006;5.926;2022-11-14T00:28:05;29.83;;;17.38;;
70908;SDS011;58554;52.006;5.926;2022-11-14T00:30:36;30.00;;;17.00;;
70908;SDS011;58554;52.006;5.926;2022-11-14T00:33:02;32.00;;;17.85;;
70908;SDS011;58554;52.006;5.926;2022-11-14T00:35:29;31.27;;;17.20;;
70908;SDS011;58554;52.006;5.926;2022-11-14T00:37:55;30.00;;;17.05;;
70908;SDS011;58554;52.006;5.926;2022-11-14T00:40:22;28.80;;;16.77;;
70908;SDS011;58554;52.006;5.926;2022-11-14T00:42:48;30.27;;;16.92;;
70908;SDS011;58554;52.006;5.926;2022-11-14T00:45:15;32.33;;;17.50;;
70908;SDS011;58554;52.006;5.926;2022-11-14T00:47:44;30.43;;;17.20;;
70908;SDS011;58554;52.006;5.926;2022-11-14T00:50:10;32.28;;;17.65;;
70908;SDS011;58554;52.006;5.926;2022-11-14T00:52:37;31.52;;;17.10;;
70908;SDS011;58554;52.006;5.926;2022-11-14T00:55:04;33.57;;;17.20;;
70908;SDS011;58554;52.006;5.926;2022-11-14T00:57:33;33.10;;;18.33;;
70908;SDS011;58554;52.006;5.926;2022-11-14T00:59:59;33.73;;;18.53;;
70908;SDS011;58554;52.006;5.926;2022-11-14T01:02:26;32.80;;;17.13;;
70908;SDS011;58554;52.006;5.926;2022-11-14T01:04:55;31.37;;;17.20;;
70908;SDS011;58554;52.006;5.926;2022-11-14T01:07:21;33.00;;;18.27;;
70908;SDS011;58554;52.006;5.926;2022-11-14T01:09:48;30.70;;;18.03;;
70908;SDS011;58554;52.006;5.926;2022-11-14T01:12:14;33.00;;;18.60;;
70908;SDS011;58554;52.006;5.926;2022-11-14T01:14:40;33.37;;;17.63;;
70908;SDS011;58554;52.006;5.926;2022-11-14T01:17:07;32.97;;;17.55;;
70908;SDS011;58554;52.006;5.926;2022-11-14T01:19:34;34.53;;;18.25;;
70908;SDS011;58554;52.006;5.926;2022-11-14T01:22:03;31.60;;;18.25;;
70908;SDS011;58554;52.006;5.926;2022-11-14T01:24:30;33.47;;;17.53;;
70908;SDS011;58554;52.006;5.926;2022-11-14T01:26:57;33.00;;;17.63;;
70908;SDS011;58554;52.006;5.926;2022-11-14T01:29:24;32.47;;;17.70;;
70908;SDS011;58554;52.006;5.926;2022-11-14T01:31:50;35.10;;;17.87;;
70908;SDS011;58554;52.006;5.926;2022-11-14T01:34:17;34.90;;;18.23;;
70908;SDS011;58554;52.006;5.926;2022-11-14T01:36:43;35.13;;;17.57;;
70908;SDS011;58554;52.006;5.926;2022-11-14T01:39:12;31.98;;;17.40;;
70908;SDS011;58554;52.006;5.926;2022-11-14T01:41:39;34.17;;;17.15;;
70908;SDS011;58554;52.006;5.926;2022-11-14T01:44:10;31.60;;;16.77;;
70908;SDS011;58554;52.006;5.926;2022-11-14T01:46:41;31.58;;;17.23;;
70908;SDS011;58554;52.006;5.926;2022-11-14T01:49:16;31.27;;;17.13;;
70908;SDS011;58554;52.006;5.926;2022-11-14T01:51:47;34.00;;;17.50;;
70908;SDS011;58554;52.006;5.926;2022-11-14T01:54:27;35.17;;;17.77;;
70908;SDS011;58554;52.006;5.926;2022-11-14T01:57:00;31.60;;;17.37;;
70908;SDS011;58554;52.006;5.926;2022-11-14T01:59:31;32.77;;;17.33;;
70908;SDS011;58554;52.006;5.926;2022-11-14T02:02:05;33.33;;;17.30;;
70908;SDS011;58554;52.006;5.926;2022-11-14T02:04:40;31.87;;;16.23;;
70908;SDS011;58554;52.006;5.926;2022-11-14T02:07:11;32.10;;;16.93;;
70908;SDS011;58554;52.006;5.926;2022-11-14T02:09:43;33.33;;;17.45;;
70908;SDS011;58554;52.006;5.926;2022-11-14T02:12:14;33.37;;;17.17;;
70908;SDS011;58554;52.006;5.926;2022-11-14T02:14:44;32.40;;;16.90;;
70908;SDS011;58554;52.006;5.926;2022-11-14T02:17:16;35.28;;;16.63;;
70908;SDS011;58554;52.006;5.926;2022-11-14T02:19:46;34.83;;;17.27;;
70908;SDS011;58554;52.006;5.926;2022-11-14T02:22:18;33.17;;;16.23;;
70908;SDS011;58554;52.006;5.926;2022-11-14T02:24:45;31.50;;;16.67;;
70908;SDS011;58554;52.006;5.926;2022-11-14T02:27:11;33.50;;;16.73;;
70908;SDS011;58554;52.006;5.926;2022-11-14T02:29:41;33.00;;;16.17;;
70908;SDS011;58554;52.006;5.926;2022-11-14T02:32:07;32.50;;;16.80;;
70908;SDS011;58554;52.006;5.926;2022-11-14T02:34:34;34.23;;;17.20;;
70908;SDS011;58554;52.006;5.926;2022-11-14T02:37:01;33.50;;;17.07;;
70908;SDS011;58554;52.006;5.926;2022-11-14T02:39:30;33.67;;;16.73;;
70908;SDS011;58554;52.006;5.926;2022-11-14T02:41:56;31.55;;;16.60;;
70908;SDS011;58554;52.006;5.926;2022-11-14T02:44:23;32.20;;;16.27;;
70908;SDS011;58554;52.006;5.926;2022-11-14T02:46:49;33.13;;;16.63;;
70908;SDS011;58554;52.006;5.926;2022-11-14T02:49:16;34.75;;;16.85;;
70908;SDS011;58554;52.006;5.926;2022-11-14T02:51:42;31.50;;;17.07;;
70908;SDS011;58554;52.006;5.926;2022-11-14T02:54:09;39.25;;;17.52;;
70908;SDS011;58554;52.006;5.926;2022-11-14T02:56:38;32.25;;;16.77;;
70908;SDS011;58554;52.006;5.926;2022-11-14T02:59:04;32.33;;;17.23;;
70908;SDS011;58554;52.006;5.926;2022-11-14T03:01:31;33.60;;;17.07;;
70908;SDS011;58554;52.006;5.926;2022-11-14T03:03:57;35.50;;;17.30;;
70908;SDS011;58554;52.006;5.926;2022-11-14T03:06:24;34.63;;;17.57;;
70908;SDS011;58554;52.006;5.926;2022-11-14T03:08:50;34.90;;;16.80;;
70908;SDS011;58554;52.006;5.926;2022-11-14T03:11:17;33.67;;;16.00;;
70908;SDS011;58554;52.006;5.926;2022-11-14T03:13:46;34.33;;;17.50;;
70908;SDS011;58554;52.006;5.926;2022-11-14T03:16:12;32.90;;;16.57;;
70908;SDS011;58554;52.006;5.926;2022-11-14T03:18:39;31.73;;;16.27;;
70908;SDS011;58554;52.006;5.926;2022-11-14T03:21:06;31.47;;;16.30;;
70908;SDS011;58554;52.006;5.926;2022-11-14T03:23:35;34.20;;;16.87;;
70908;SDS011;58554;52.006;5.926;2022-11-14T03:26:03;32.92;;;16.30;;
70908;SDS011;58554;52.006;5.926;2022-11-14T03:28:32;35.07;;;17.50;;
70908;SDS011;58554;52.006;5.926;2022-11-14T03:31:02;30.60;;;15.90;;
70908;SDS011;58554;52.006;5.926;2022-11-14T03:33:29;31.52;;;15.50;;
70908;SDS011;58554;52.006;5.926;2022-11-14T03:35:55;33.57;;;16.23;;
70908;SDS011;58554;52.006;5.926;2022-11-14T03:38:22;30.63;;;16.53;;
70908;SDS011;58554;52.006;5.926;2022-11-14T03:40:49;32.47;;;15.67;;
70908;SDS011;58554;52.006;5.926;2022-11-14T03:43:16;32.45;;;16.27;;
70908;SDS011;58554;52.006;5.926;2022-11-14T03:45:43;30.77;;;16.20;;
70908;SDS011;58554;52.006;5.926;2022-11-14T03:48:14;31.70;;;15.87;;
70908;SDS011;58554;52.006;5.926;2022-11-14T03:50:41;30.38;;;16.63;;
70908;SDS011;58554;52.006;5.926;2022-11-14T03:53:08;29.57;;;15.90;;
70908;SDS011;58554;52.006;5.926;2022-11-14T03:55:36;30.93;;;15.67;;
70908;SDS011;58554;52.006;5.926;2022-11-14T03:58:02;31.25;;;16.45;;
70908;SDS011;58554;52.006;5.926;2022-11-14T04:00:29;32.57;;;16.40;;
70908;SDS011;58554;52.006;5.926;2022-11-14T04:02:55;31.73;;;16.17;;
70908;SDS011;58554;52.006;5.926;2022-11-14T04:05:25;31.98;;;16.77;;
70908;SDS011;58554;52.006;5.926;2022-11-14T04:07:52;32.27;;;16.10;;
70908;SDS011;58554;52.006;5.926;2022-11-14T04:10:18;31.50;;;16.00;;
70908;SDS011;58554;52.006;5.926;2022-11-14T04:12:46;31.97;;;16.00;;
70908;SDS011;58554;52.006;5.926;2022-11-14T04:15:13;30.27;;;16.08;;
70908;SDS011;58554;52.006;5.926;2022-11-14T04:17:40;32.63;;;15.93;;
70908;SDS011;58554;52.006;5.926;2022-11-14T04:20:07;32.28;;;16.05;;
70908;SDS011;58554;52.006;5.926;2022-11-14T04:22:39;31.23;;;15.60;;
70908;SDS011;58554;52.006;5.926;2022-11-14T04:25:07;32.08;;;15.73;;
70908;SDS011;58554;52.006;5.926;2022-11-14T04:27:35;34.17;;;16.40;;
70908;SDS011;58554;52.006;5.926;2022-11-14T04:30:01;29.42;;;15.95;;
70908;SDS011;58554;52.006;5.926;2022-11-14T04:32:30;31.07;;;16.23;;
70908;SDS011;58554;52.006;5.926;2022-11-14T04:34:56;30.20;;;15.83;;
70908;SDS011;58554;52.006;5.926;2022-11-14T04:37:22;32.93;;;15.90;;
70908;SDS011;58554;52.006;5.926;2022-11-14T04:39:51;32.88;;;16.13;;
70908;SDS011;58554;52.006;5.926;2022-11-14T04:42:18;33.50;;;16.20;;
70908;SDS011;58554;52.006;5.926;2022-11-14T04:44:45;31.03;;;15.47;;
70908;SDS011;58554;52.006;5.926;2022-11-14T04:47:11;33.07;;;16.50;;
70908;SDS011;58554;52.006;5.926;2022-11-14T04:49:37;31.53;;;15.30;;
70908;SDS011;58554;52.006;5.926;2022-11-14T04:52:04;29.40;;;15.63;;
70908;SDS011;58554;52.006;5.926;2022-11-14T04:54:30;34.73;;;16.33;;
70908;SDS011;58554;52.006;5.926;2022-11-14T04:56:59;31.23;;;15.93;;
70908;SDS011;58554;52.006;5.926;2022-11-14T04:59:26;30.30;;;15.70;;
70908;SDS011;58554;52.006;5.926;2022-11-14T05:01:52;29.92;;;15.15;;
70908;SDS011;58554;52.006;5.926;2022-11-14T05:04:19;33.67;;;16.67;;
70908;SDS011;58554;52.006;5.926;2022-11-14T05:06:45;34.25;;;16.42;;
70908;SDS011;58554;52.006;5.926;2022-11-14T05:09:12;32.43;;;15.60;;
70908;SDS011;58554;52.006;5.926;2022-11-14T05:11:38;32.33;;;15.60;;
70908;SDS011;58554;52.006;5.926;2022-11-14T05:14:07;31.83;;;15.77;;
70908;SDS011;58554;52.006;5.926;2022-11-14T05:16:34;30.65;;;15.02;;
70908;SDS011;58554;52.006;5.926;2022-11-14T05:19:00;32.67;;;16.00;;
70908;SDS011;58554;52.006;5.926;2022-11-14T05:21:27;30.30;;;14.97;;
70908;SDS011;58554;52.006;5.926;2022-11-14T05:23:53;30.63;;;15.40;;
70908;SDS011;58554;52.006;5.926;2022-11-14T05:26:19;30.50;;;15.67;;
70908;SDS011;58554;52.006;5.926;2022-11-14T05:28:46;30.20;;;15.53;;
70908;SDS011;58554;52.006;5.926;2022-11-14T05:31:15;30.80;;;14.93;;
70908;SDS011;58554;52.006;5.926;2022-11-14T05:33:41;32.53;;;16.55;;
70908;SDS011;58554;52.006;5.926;2022-11-14T05:36:10;30.10;;;14.90;;
70908;SDS011;58554;52.006;5.926;2022-11-14T05:38:38;29.38;;;14.90;;
70908;SDS011;58554;52.006;5.926;2022-11-14T05:41:07;31.40;;;14.43;;
70908;SDS011;58554;52.006;5.926;2022-11-14T05:43:35;30.48;;;15.23;;
70908;SDS011;58554;52.006;5.926;2022-11-14T05:46:03;29.90;;;15.33;;
70908;SDS011;58554;52.006;5.926;2022-11-14T05:48:34;32.57;;;16.53;;
70908;SDS011;58554;52.006;5.926;2022-11-14T05:51:01;31.67;;;15.50;;
70908;SDS011;58554;52.006;5.926;2022-11-14T05:53:31;32.23;;;15.40;;
70908;SDS011;58554;52.006;5.926;2022-11-14T05:55:59;30.67;;;15.17;;
70908;SDS011;58554;52.006;5.926;2022-11-14T05:58:26;30.53;;;15.10;;
70908;SDS011;58554;52.006;5.926;2022-11-14T06:01:00;32.03;;;16.35;;
70908;SDS011;58554;52.006;5.926;2022-11-14T06:03:29;31.40;;;15.07;;
70908;SDS011;58554;52.006;5.926;2022-11-14T06:06:02;30.08;;;15.80;;
70908;SDS011;58554;52.006;5.926;2022-11-14T06:08:32;29.30;;;14.83;;
70908;SDS011;58554;52.006;5.926;2022-11-14T06:11:00;31.42;;;15.23;;
70908;SDS011;58554;52.006;5.926;2022-11-14T06:13:29;32.33;;;15.27;;
70908;SDS011;58554;52.006;5.926;2022-11-14T06:15:57;31.17;;;15.33;;
70908;SDS011;58554;52.006;5.926;2022-11-14T06:18:25;31.38;;;14.90;;
70908;SDS011;58554;52.006;5.926;2022-11-14T06:20:54;30.20;;;15.00;;
70908;SDS011;58554;52.006;5.926;2022-11-14T06:23:24;31.02;;;15.15;;
70908;SDS011;58554;52.006;5.926;2022-11-14T06:25:51;31.97;;;15.53;;
70908;SDS011;58554;52.006;5.926;2022-11-14T06:28:17;30.00;;;15.43;;
70908;SDS011;58554;52.006;5.926;2022-11-14T06:30:43;31.97;;;15.80;;
70908;SDS011;58554;52.006;5.926;2022-11-14T06:33:10;30.80;;;15.27;;
70908;SDS011;58554;52.006;5.926;2022-11-14T06:35:36;30.83;;;15.10;;
70908;SDS011;58554;52.006;5.926;2022-11-14T06:38:05;30.47;;;15.30;;
70908;SDS011;58554;52.006;5.926;2022-11-14T06:40:32;31.17;;;14.90;;
70908;SDS011;58554;52.006;5.926;2022-11-14T06:42:58;30.53;;;14.87;;
70908;SDS011;58554;52.006;5.926;2022-11-14T06:45:25;30.08;;;15.82;;
70908;SDS011;58554;52.006;5.926;2022-11-14T06:47:51;31.57;;;14.97;;
70908;SDS011;58554;52.006;5.926;2022-11-14T06:50:17;30.67;;;15.52;;
70908;SDS011;58554;52.006;5.926;2022-11-14T06:52:44;28.93;;;14.97;;
70908;SDS011;58554;52.006;5.926;2022-11-14T06:55:13;28.43;;;14.77;;
70908;SDS011;58554;52.006;5.926;2022-11-14T06:57:40;30.40;;;16.20;;
70908;SDS011;58554;52.006;5.926;2022-11-14T07:00:08;27.93;;;14.57;;
70908;SDS011;58554;52.006;5.926;2022-11-14T07:02:36;29.38;;;15.40;;
70908;SDS011;58554;52.006;5.926;2022-11-14T07:05:03;30.55;;;15.10;;
70908;SDS011;58554;52.006;5.926;2022-11-14T07:07:30;29.47;;;15.53;;
70908;SDS011;58554;52.006;5.926;2022-11-14T07:09:57;29.17;;;14.82;;
70908;SDS011;58554;52.006;5.926;2022-11-14T07:12:26;27.47;;;14.13;;
70908;SDS011;58554;52.006;5.926;2022-11-14T07:14:52;30.42;;;15.07;;
70908;SDS011;58554;52.006;5.926;2022-11-14T07:17:19;27.70;;;15.20;;
70908;SDS011;58554;52.006;5.926;2022-11-14T07:19:45;27.95;;;14.70;;
70908;SDS011;58554;52.006;5.926;2022-11-14T07:22:12;31.10;;;14.50;;
70908;SDS011;58554;52.006;5.926;2022-11-14T07:24:38;28.73;;;14.53;;
70908;SDS011;58554;52.006;5.926;2022-11-14T07:27:05;30.70;;;14.95;;
70908;SDS011;58554;52.006;5.926;2022-11-14T07:29:34;31.73;;;15.33;;
70908;SDS011;58554;52.006;5.926;2022-11-14T07:32:00;30.10;;;14.85;;
70908;SDS011;58554;52.006;5.926;2022-11-14T07:34:26;29.83;;;14.98;;
70908;SDS011;58554;52.006;5.926;2022-11-14T07:36:53;27.87;;;15.13;;
70908;SDS011;58554;52.006;5.926;2022-11-14T07:39:19;30.67;;;14.30;;
70908;SDS011;58554;52.006;5.926;2022-11-14T07:41:46;30.07;;;15.50;;
70908;SDS011;58554;52.006;5.926;2022-11-14T07:44:12;31.93;;;15.00;;
70908;SDS011;58554;52.006;5.926;2022-11-14T07:46:41;30.95;;;14.45;;
70908;SDS011;58554;52.006;5.926;2022-11-14T07:49:07;33.47;;;15.00;;
70908;SDS011;58554;52.006;5.926;2022-11-14T07:51:34;28.40;;;14.43;;
70908;SDS011;58554;52.006;5.926;2022-11-14T07:54:00;31.10;;;15.40;;
70908;SDS011;58554;52.006;5.926;2022-11-14T07:56:27;30.10;;;14.53;;
70908;SDS011;58554;52.006;5.926;2022-11-14T07:58:54;29.17;;;14.97;;
70908;SDS011;58554;52.006;5.926;2022-11-14T08:01:21;27.87;;;14.17;;
70908;SDS011;58554;52.006;5.926;2022-11-14T08:03:51;30.17;;;15.43;;
70908;SDS011;58554;52.006;5.926;2022-11-14T08:06:17;31.27;;;15.17;;
70908;SDS011;58554;52.006;5.926;2022-11-14T08:08:43;30.87;;;15.13;;
70908;SDS011;58554;52.006;5.926;2022-11-14T08:11:10;29.57;;;15.77;;
70908;SDS011;58554;52.006;5.926;2022-11-14T08:13:37;29.87;;;14.60;;
70908;SDS011;58554;52.006;5.926;2022-11-14T08:16:04;31.73;;;15.47;;
70908;SDS011;58554;52.006;5.926;2022-11-14T08:18:32;28.80;;;14.53;;
70908;SDS011;58554;52.006;5.926;2022-11-14T08:21:05;30.48;;;15.70;;
70908;SDS011;58554;52.006;5.926;2022-11-14T08:23:32;29.20;;;14.50;;
70908;SDS011;58554;52.006;5.926;2022-11-14T08:25:58;29.30;;;14.80;;
70908;SDS011;58554;52.006;5.926;2022-11-14T08:28:25;32.05;;;15.93;;
70908;SDS011;58554;52.006;5.926;2022-11-14T08:30:51;28.97;;;14.13;;
70908;SDS011;58554;52.006;5.926;2022-11-14T08:33:24;29.50;;;15.23;;
70908;SDS011;58554;52.006;5.926;2022-11-14T08:35:50;32.07;;;15.20;;
70908;SDS011;58554;52.006;5.926;2022-11-14T08:38:19;32.53;;;16.02;;
70908;SDS011;58554;52.006;5.926;2022-11-14T08:40:46;30.50;;;15.27;;
70908;SDS011;58554;52.006;5.926;2022-11-14T08:43:12;33.27;;;15.93;;
70908;SDS011;58554;52.006;5.926;2022-11-14T08:45:39;30.30;;;15.30;;
70908;SDS011;58554;52.006;5.926;2022-11-14T08:48:05;31.13;;;15.13;;
70908;SDS011;58554;52.006;5.926;2022-11-14T08:50:32;30.50;;;15.23;;
70908;SDS011;58554;52.006;5.926;2022-11-14T08:52:58;30.02;;;15.13;;
70908;SDS011;58554;52.006;5.926;2022-11-14T08:55:27;30.47;;;15.27;;
70908;SDS011;58554;52.006;5.926;2022-11-14T08:57:54;31.83;;;15.50;;
70908;SDS011;58554;52.006;5.926;2022-11-14T09:00:20;29.53;;;14.63;;
70908;SDS011;58554;52.006;5.926;2022-11-14T09:02:47;32.97;;;15.57;;
70908;SDS011;58554;52.006;5.926;2022-11-14T09:05:14;30.60;;;15.03;;
70908;SDS011;58554;52.006;5.926;2022-11-14T09:07:41;32.47;;;16.10;;
70908;SDS011;58554;52.006;5.926;2022-11-14T09:10:08;33.80;;;15.20;;
70908;SDS011;58554;52.006;5.926;2022-11-14T09:12:37;29.83;;;14.50;;
70908;SDS011;58554;52.006;5.926;2022-11-14T09:15:04;32.03;;;15.37;;
70908;SDS011;58554;52.006;5.926;2022-11-14T09:17:32;32.80;;;15.77;;
70908;SDS011;58554;52.006;5.926;2022-11-14T09:19:59;32.83;;;16.17;;
70908;SDS011;58554;52.006;5.926;2022-11-14T09:22:25;32.20;;;15.40;;
70908;SDS011;58554;52.006;5.926;2022-11-14T09:24:52;31.63;;;15.00;;
70908;SDS011;58554;52.006;5.926;2022-11-14T09:27:18;30.67;;;15.47;;
70908;SDS011;58554;52.006;5.926;2022-11-14T09:29:47;29.03;;;15.40;;
70908;SDS011;58554;52.006;5.926;2022-11-14T09:32:14;33.10;;;16.27;;
70908;SDS011;58554;52.006;5.926;2022-11-14T09:34:40;28.60;;;14.55;;
70908;SDS011;58554;52.006;5.926;2022-11-14T09:37:06;30.33;;;14.93;;
70908;SDS011;58554;52.006;5.926;2022-11-14T09:39:33;29.20;;;15.00;;
70908;SDS011;58554;52.006;5.926;2022-11-14T09:42:03;30.37;;;15.07;;
70908;SDS011;58554;52.006;5.926;2022-11-14T09:44:57;31.27;;;14.93;;
70908;SDS011;58554;52.006;5.926;2022-11-14T09:47:27;28.97;;;15.73;;
70908;SDS011;58554;52.006;5.926;2022-11-14T09:50:01;30.07;;;15.13;;
70908;SDS011;58554;52.006;5.926;2022-11-14T09:52:36;27.08;;;15.12;;
70908;SDS011;58554;52.006;5.926;2022-11-14T09:55:09;32.87;;;14.83;;
70908;SDS011;58554;52.006;5.926;2022-11-14T09:57:42;31.35;;;16.20;;
70908;SDS011;58554;52.006;5.926;2022-11-14T10:00:16;32.57;;;14.90;;
70908;SDS011;58554;52.006;5.926;2022-11-14T10:02:50;28.60;;;14.55;;
70908;SDS011;58554;52.006;5.926;2022-11-14T10:05:38;26.97;;;13.93;;
70908;SDS011;58554;52.006;5.926;2022-11-14T10:08:26;29.97;;;15.40;;
70908;SDS011;58554;52.006;5.926;2022-11-14T10:11:12;32.47;;;15.60;;
70908;SDS011;58554;52.006;5.926;2022-11-14T10:17:27;29.13;;;15.73;;
70908;SDS011;58554;52.006;5.926;2022-11-14T10:20:26;31.43;;;16.23;;
70908;SDS011;58554;52.006;5.926;2022-11-14T10:23:08;31.97;;;15.43;;
70908;SDS011;58554;52.006;5.926;2022-11-14T10:25:53;31.07;;;16.27;;
70908;SDS011;58554;52.006;5.926;2022-11-14T10:28:37;32.87;;;16.43;;
70908;SDS011;58554;52.006;5.926;2022-11-14T10:31:19;28.80;;;15.37;;
70908;SDS011;58554;52.006;5.926;2022-11-14T10:34:10;29.80;;;15.50;;
70908;SDS011;58554;52.006;5.926;2022-11-14T10:36:49;31.33;;;15.97;;
70908;SDS011;58554;52.006;5.926;2022-11-14T10:39:30;29.53;;;15.63;;
70908;SDS011;58554;52.006;5.926;2022-11-14T10:42:10;31.20;;;15.47;;
70908;SDS011;58554;52.006;5.926;2022-11-14T10:44:45;32.67;;;15.30;;
70908;SDS011;58554;52.006;5.926;2022-11-14T10:47:19;30.27;;;15.20;;
70908;SDS011;58554;52.006;5.926;2022-11-14T10:49:53;30.67;;;16.27;;
70908;SDS011;58554;52.006;5.926;2022-11-14T10:52:31;29.53;;;14.67;;
70908;SDS011;58554;52.006;5.926;2022-11-14T10:55:08;29.50;;;15.17;;
70908;SDS011;58554;52.006;5.926;2022-11-14T10:57:39;28.97;;;14.83;;
70908;SDS011;58554;52.006;5.926;2022-11-14T11:00:13;29.25;;;15.40;;
70908;SDS011;58554;52.006;5.926;2022-11-14T11:02:46;29.33;;;14.83;;
70908;SDS011;58554;52.006;5.926;2022-11-14T11:05:20;31.60;;;16.00;;
70908;SDS011;58554;52.006;5.926;2022-11-14T11:07:50;33.13;;;16.23;;
70908;SDS011;58554;52.006;5.926;2022-11-14T11:10:21;28.60;;;15.40;;
70908;SDS011;58554;52.006;5.926;2022-11-14T11:12:49;29.63;;;15.00;;
70908;SDS011;58554;52.006;5.926;2022-11-14T11:15:19;30.13;;;16.23;;
70908;SDS011;58554;52.006;5.926;2022-11-14T11:17:54;30.90;;;15.82;;
70908;SDS011;58554;52.006;5.926;2022-11-14T11:20:27;32.40;;;16.17;;
70908;SDS011;58554;52.006;5.926;2022-11-14T11:23:01;30.30;;;15.27;;
70908;SDS011;58554;52.006;5.926;2022-11-14T11:25:31;29.93;;;15.17;;
70908;SDS011;58554;52.006;5.926;2022-11-14T11:28:05;29.93;;;15.87;;
70908;SDS011;58554;52.006;5.926;2022-11-14T11:30:37;31.17;;;16.47;;
70908;SDS011;58554;52.006;5.926;2022-11-14T11:33:14;34.30;;;17.03;;
70908;SDS011;58554;52.006;5.926;2022-11-14T11:35:50;32.33;;;16.57;;
70908;SDS011;58554;52.006;5.926;2022-11-14T11:38:22;33.73;;;17.23;;
70908;SDS011;58554;52.006;5.926;2022-11-14T11:40:53;37.00;;;18.17;;
70908;SDS011;58554;52.006;5.926;2022-11-14T11:43:30;38.40;;;19.23;;
70908;SDS011;58554;52.006;5.926;2022-11-14T11:46:10;40.40;;;19.03;;
70908;SDS011;58554;52.006;5.926;2022-11-14T11:48:43;35.08;;;18.50;;
70908;SDS011;58554;52.006;5.926;2022-11-14T11:51:21;40.47;;;19.60;;
70908;SDS011;58554;52.006;5.926;2022-11-14T11:53:55;38.87;;;20.63;;
70908;SDS011;58554;52.006;5.926;2022-11-14T11:56:30;35.33;;;19.20;;
70908;SDS011;58554;52.006;5.926;2022-11-14T11:58:59;35.57;;;18.77;;
70908;SDS011;58554;52.006;5.926;2022-11-14T12:01:47;36.95;;;18.77;;
70908;SDS011;58554;52.006;5.926;2022-11-14T12:04:16;37.30;;;19.43;;
70908;SDS011;58554;52.006;5.926;2022-11-14T12:06:46;40.80;;;20.37;;
70908;SDS011;58554;52.006;5.926;2022-11-14T12:09:26;41.30;;;20.70;;
70908;SDS011;58554;52.006;5.926;2022-11-14T12:12:03;38.45;;;20.48;;
70908;SDS011;58554;52.006;5.926;2022-11-14T12:14:47;40.03;;;20.23;;
70908;SDS011;58554;52.006;5.926;2022-11-14T12:17:32;42.87;;;20.63;;
70908;SDS011;58554;52.006;5.926;2022-11-14T12:20:40;37.30;;;19.93;;
70908;SDS011;58554;52.006;5.926;2022-11-14T12:23:44;39.57;;;21.13;;
70908;SDS011;58554;52.006;5.926;2022-11-14T12:26:47;40.30;;;20.35;;
70908;SDS011;58554;52.006;5.926;2022-11-14T12:29:39;39.07;;;19.80;;
70908;SDS011;58554;52.006;5.926;2022-11-14T12:32:28;34.83;;;20.05;;
70908;SDS011;58554;52.006;5.926;2022-11-14T12:35:02;43.57;;;20.23;;
70908;SDS011;58554;52.006;5.926;2022-11-14T12:37:42;37.60;;;20.23;;
70908;SDS011;58554;52.006;5.926;2022-11-14T12:40:20;38.93;;;20.27;;
70908;SDS011;58554;52.006;5.926;2022-11-14T12:42:54;36.90;;;19.30;;
70908;SDS011;58554;52.006;5.926;2022-11-14T12:48:30;35.50;;;18.07;;
70908;SDS011;58554;52.006;5.926;2022-11-14T12:51:01;36.13;;;18.15;;
70908;SDS011;58554;52.006;5.926;2022-11-14T12:53:40;35.97;;;18.10;;
70908;SDS011;58554;52.006;5.926;2022-11-14T12:59:25;36.30;;;17.20;;
70908;SDS011;58554;52.006;5.926;2022-11-14T13:02:15;32.77;;;16.83;;
70908;SDS011;58554;52.006;5.926;2022-11-14T13:05:17;34.60;;;17.10;;
70908;SDS011;58554;52.006;5.926;2022-11-14T13:08:07;30.10;;;16.27;;
70908;SDS011;58554;52.006;5.926;2022-11-14T13:10:55;30.83;;;16.42;;
70908;SDS011;58554;52.006;5.926;2022-11-14T13:13:24;32.40;;;16.43;;
70908;SDS011;58554;52.006;5.926;2022-11-14T13:15:51;29.93;;;16.40;;
70908;SDS011;58554;52.006;5.926;2022-11-14T13:18:21;31.98;;;17.13;;
70908;SDS011;58554;52.006;5.926;2022-11-14T13:20:59;27.83;;;15.20;;
70908;SDS011;58554;52.006;5.926;2022-11-14T13:26:39;29.20;;;14.87;;
70908;SDS011;58554;52.006;5.926;2022-11-14T13:35:19;27.13;;;14.37;;
70908;SDS011;58554;52.006;5.926;2022-11-14T13:38:09;23.77;;;13.07;;
70908;SDS011;58554;52.006;5.926;2022-11-14T13:41:05;26.07;;;13.90;;
70908;SDS011;58554;52.006;5.926;2022-11-14T13:43:55;27.60;;;13.97;;
70908;SDS011;58554;52.006;5.926;2022-11-14T13:46:50;27.73;;;14.03;;
70908;SDS011;58554;52.006;5.926;2022-11-14T13:49:53;26.58;;;13.00;;
70908;SDS011;58554;52.006;5.926;2022-11-14T13:52:28;28.63;;;14.63;;
70908;SDS011;58554;52.006;5.926;2022-11-14T13:55:00;25.90;;;13.45;;
70908;SDS011;58554;52.006;5.926;2022-11-14T13:57:31;26.58;;;14.02;;
70908;SDS011;58554;52.006;5.926;2022-11-14T14:00:11;27.57;;;14.17;;
70908;SDS011;58554;52.006;5.926;2022-11-14T14:02:49;24.73;;;13.45;;
70908;SDS011;58554;52.006;5.926;2022-11-14T14:05:47;25.33;;;13.70;;
70908;SDS011;58554;52.006;5.926;2022-11-14T14:08:40;24.57;;;14.40;;
70908;SDS011;58554;52.006;5.926;2022-11-14T14:11:43;25.80;;;13.70;;
70908;SDS011;58554;52.006;5.926;2022-11-14T14:14:33;26.43;;;13.50;;
70908;SDS011;58554;52.006;5.926;2022-11-14T14:17:19;24.93;;;14.10;;
70908;SDS011;58554;52.006;5.926;2022-11-14T14:20:00;26.75;;;13.73;;
70908;SDS011;58554;52.006;5.926;2022-11-14T14:22:46;28.07;;;13.50;;
70908;SDS011;58554;52.006;5.926;2022-11-14T14:25:28;26.37;;;13.83;;
70908;SDS011;58554;52.006;5.926;2022-11-14T14:28:08;27.63;;;14.50;;
70908;SDS011;58554;52.006;5.926;2022-11-14T14:31:03;29.73;;;15.60;;
70908;SDS011;58554;52.006;5.926;2022-11-14T14:33:38;26.93;;;13.93;;
70908;SDS011;58554;52.006;5.926;2022-11-14T14:36:20;28.40;;;14.83;;
70908;SDS011;58554;52.006;5.926;2022-11-14T14:38:49;29.05;;;14.63;;
70908;SDS011;58554;52.006;5.926;2022-11-14T14:41:30;27.57;;;14.93;;
70908;SDS011;58554;52.006;5.926;2022-11-14T14:43:59;26.80;;;14.55;;
70908;SDS011;58554;52.006;5.926;2022-11-14T14:46:27;27.70;;;14.80;;
70908;SDS011;58554;52.006;5.926;2022-11-14T14:48:57;26.53;;;14.97;;
70908;SDS011;58554;52.006;5.926;2022-11-14T14:51:32;29.03;;;15.27;;
70908;SDS011;58554;52.006;5.926;2022-11-14T14:54:01;27.88;;;14.60;;
70908;SDS011;58554;52.006;5.926;2022-11-14T14:56:27;27.63;;;14.85;;
70908;SDS011;58554;52.006;5.926;2022-11-14T14:58:54;27.57;;;15.73;;
70908;SDS011;58554;52.006;5.926;2022-11-14T15:01:21;27.50;;;14.30;;
70908;SDS011;58554;52.006;5.926;2022-11-14T15:03:56;27.93;;;15.10;;